Weather History for KMOX - April, 2014

Change the Weather History Date:

Wednesday, April 9, 2014

  Actual Average Record
Temperature  
Mean Temperature 58 °F -  
Max Temperature 80 °F 48 °F 80 °F (2014)
Min Temperature 35 °F 29 °F 8 °F (1997)
Degree Days  
Heating Degree Days 8    
Growing Degree Days 8 (Base 50)    
Moisture  
Dew Point 35 °F    
Average Humidity 52    
Maximum Humidity 75    
Minimum Humidity 21    
Precipitation  
Precipitation 0.00 in - - ()
Sea Level Pressure  
Sea Level Pressure 29.64 in    
Wind  
Wind Speed 13 mph (SW)    
Max Wind Speed 33 mph    
Max Gust Speed 44 mph    
Visibility 10 miles    
Events Rain    
Averages and records for this station are not official NWS values.
T = Trace of Precipitation, MM = Missing Value Source: NWS Daily Summary

Daily Weather History Graph

Daily Weather History Graph

Search for Another Location

Airport or City:

Trip Planner

Search our weather history database for the weather conditions in past years. The results will help you decide how hot, cold, wet, or windy it might be!

Date:

Astronomy

Apr. 09, 2014 Rise Set
Actual Time 6:49 AM CDT 8:02 PM CDT
Civil Twilight 6:18 AM CDT 8:33 PM CDT
Nautical Twilight 5:41 AM CDT 9:09 PM CDT
Astronomical Twilight 5:03 AM CDT 9:49 PM CDT
Moon 2:37 PM CDT (4/9) 3:54 AM CDT (4/9)
Length of Visible Light 14h 14m
Length of Day
13h 13m
Waxing Gibbous, 72% of the Moon is Illuminated
Apr 9
Waxing Gibbous
Apr 15
Full
Apr 22
Last Quarter
Apr 29
New
May 6
First Quarter

Hourly Weather History & Observations

Time (CDT) Temp. Windchill Dew Point Humidity Pressure Visibility Wind Dir Wind Speed Gust Speed Precip Events Conditions
12:12 AM 35.6 °F 28.6 °F 28.4 °F 75% 29.89 in 10.0 mi SSE 9.2 mph - N/A   Clear
12:31 AM 35.6 °F 28.6 °F 28.4 °F 75% 29.89 in 4.0 mi SSE 9.2 mph - N/A   Haze
12:51 AM 37.4 °F 29.8 °F 28.4 °F 70% 29.88 in 10.0 mi South 11.5 mph - N/A   Clear
1:12 AM 37.4 °F 29.3 °F 28.4 °F 70% 29.88 in 10.0 mi South 12.7 mph - N/A   Clear
1:32 AM 35.6 °F 27.5 °F 28.4 °F 75% 29.88 in 10.0 mi South 11.5 mph - N/A   Clear
1:51 AM 35.6 °F 27.5 °F 28.4 °F 75% 29.87 in 10.0 mi South 11.5 mph - N/A   Scattered Clouds
2:12 AM 37.4 °F 29.3 °F 28.4 °F 70% 29.86 in 10.0 mi SSE 12.7 mph - N/A   Scattered Clouds
2:32 AM 37.4 °F 29.8 °F 28.4 °F 70% 29.85 in 10.0 mi SSE 11.5 mph - N/A   Mostly Cloudy
2:52 AM 37.4 °F 29.3 °F 30.2 °F 75% 29.83 in 10.0 mi SSE 12.7 mph - N/A   Mostly Cloudy
3:11 AM 37.4 °F 29.3 °F 28.4 °F 70% 29.82 in 10.0 mi SSE 12.7 mph - N/A   Mostly Cloudy
3:32 AM 37.4 °F 29.3 °F 30.2 °F 75% 29.81 in 10.0 mi SSE 12.7 mph - N/A   Mostly Cloudy
3:51 AM 37.4 °F 28.9 °F 30.2 °F 75% 29.81 in 10.0 mi SSE 13.8 mph - N/A   Mostly Cloudy
4:12 AM 37.4 °F 28.9 °F 30.2 °F 75% 29.79 in 10.0 mi SSE 13.8 mph - N/A   Scattered Clouds
4:32 AM 37.4 °F 29.3 °F 30.2 °F 75% 29.79 in 10.0 mi SSE 12.7 mph - N/A   Scattered Clouds
4:52 AM 35.6 °F 27.5 °F 28.4 °F 75% 29.77 in 10.0 mi SSE 11.5 mph - N/A   Clear
5:32 AM 35.6 °F 26.6 °F 28.4 °F 75% 29.74 in 10.0 mi SSE 13.8 mph - N/A   Clear
5:52 AM 35.6 °F 26.6 °F 28.4 °F 75% 29.73 in 10.0 mi SSE 13.8 mph - N/A   Clear
6:11 AM 35.6 °F 28.0 °F 28.4 °F 75% 29.73 in 10.0 mi SSE 10.4 mph - N/A   Clear
6:32 AM 35.6 °F 27.5 °F 28.4 °F 75% 29.72 in 10.0 mi SSE 11.5 mph - N/A   Clear
6:52 AM 35.6 °F 26.6 °F 28.4 °F 75% 29.71 in 10.0 mi SSE 13.8 mph - N/A   Clear
7:11 AM 35.6 °F 27.1 °F 28.4 °F 75% 29.71 in 10.0 mi SSE 12.7 mph - N/A   Clear
7:32 AM 37.4 °F 30.3 °F 28.4 °F 70% 29.70 in 10.0 mi SSE 10.4 mph - N/A   Clear
7:51 AM 37.4 °F 29.3 °F 30.2 °F 75% 29.70 in 10.0 mi SSE 12.7 mph - N/A   Clear
8:12 AM 39.2 °F 32.0 °F 30.2 °F 70% 29.69 in 10.0 mi SSE 11.5 mph - N/A   Clear
8:32 AM 42.8 °F 36.2 °F 30.2 °F 61% 29.68 in 10.0 mi South 12.7 mph - N/A   Clear
8:51 AM 44.6 °F 38.8 °F 32.0 °F 61% 29.68 in 10.0 mi South 11.5 mph - N/A   Clear
9:11 AM 46.4 °F 40.7 °F 32.0 °F 57% 29.67 in 10.0 mi South 12.7 mph - N/A   Clear
9:31 AM 46.4 °F 40.7 °F 33.8 °F 62% 29.66 in 10.0 mi South 12.7 mph - N/A   Clear
9:51 AM 50.0 °F - 33.8 °F 54% 29.65 in 10.0 mi South 12.7 mph - N/A   Clear
10:11 AM 53.6 °F - 35.6 °F 51% 29.65 in 10.0 mi SSW 12.7 mph - N/A   Clear
10:32 AM 53.6 °F - 35.6 °F 51% 29.64 in 10.0 mi South 11.5 mph - N/A   Clear
10:51 AM 55.4 °F - 37.4 °F 51% 29.63 in 10.0 mi South 9.2 mph - N/A   Clear
11:12 AM 57.2 °F - 37.4 °F 48% 29.63 in 10.0 mi South 10.4 mph - N/A   Clear
11:31 AM 60.8 °F - 37.4 °F 42% 29.62 in 10.0 mi SSW 12.7 mph - N/A   Clear
11:52 AM 62.6 °F - 39.2 °F 42% 29.61 in 10.0 mi SW 9.2 mph - N/A   Clear
12:12 PM 64.4 °F - 39.2 °F 40% 29.60 in 10.0 mi SW 12.7 mph - N/A   Clear
12:32 PM 66.2 °F - 39.2 °F 37% 29.59 in 10.0 mi SSW 12.7 mph - N/A   Clear
12:52 PM 68.0 °F - 39.2 °F 35% 29.58 in 10.0 mi SSW 12.7 mph - N/A   Clear
1:11 PM 69.8 °F - 39.2 °F 33% 29.57 in 10.0 mi SW 10.4 mph - N/A   Clear
1:32 PM 71.6 °F - 41.0 °F 33% 29.56 in 10.0 mi SW 11.5 mph 20.7 mph N/A   Clear
1:51 PM 73.4 °F - 41.0 °F 31% 29.55 in 10.0 mi WSW 15.0 mph - N/A   Clear
2:12 PM 73.4 °F - 41.0 °F 31% 29.54 in 10.0 mi WSW 12.7 mph 18.4 mph N/A   Clear
2:32 PM 75.2 °F - 41.0 °F 29% 29.54 in 10.0 mi WSW 15.0 mph - N/A   Clear
2:51 PM 75.2 °F - 39.2 °F 27% 29.53 in 10.0 mi West 15.0 mph 23.0 mph N/A   Clear
3:11 PM 78.8 °F - 39.2 °F 24% 29.53 in 10.0 mi West 16.1 mph - N/A   Clear
3:32 PM 78.8 °F - 39.2 °F 24% 29.52 in 10.0 mi West 16.1 mph 24.2 mph N/A   Clear
3:51 PM 80.6 °F - 39.2 °F 23% 29.50 in 10.0 mi West 18.4 mph 24.2 mph N/A   Clear
4:11 PM 78.8 °F - 37.4 °F 23% 29.49 in 10.0 mi West 16.1 mph 23.0 mph N/A   Clear
4:32 PM 78.8 °F - 35.6 °F 21% 29.49 in 10.0 mi West 18.4 mph 25.3 mph N/A   Clear
4:51 PM 78.8 °F - 37.4 °F 23% 29.49 in 10.0 mi West 18.4 mph 26.5 mph N/A   Clear
5:12 PM 78.8 °F - 37.4 °F 23% 29.48 in 10.0 mi WSW 23.0 mph 28.8 mph N/A   Clear
5:31 PM 78.8 °F - 37.4 °F 23% 29.47 in 10.0 mi West 15.0 mph 20.7 mph N/A   Clear
5:52 PM 78.8 °F - 39.2 °F 24% 29.47 in 10.0 mi WSW 15.0 mph 19.6 mph N/A   Clear
6:12 PM 78.8 °F - 39.2 °F 24% 29.47 in 10.0 mi West 13.8 mph 18.4 mph N/A   Clear
6:31 PM 75.2 °F - 39.2 °F 27% 29.46 in 10.0 mi West 12.7 mph - N/A   Clear
6:52 PM 75.2 °F - 39.2 °F 27% 29.46 in 10.0 mi West 9.2 mph - N/A   Clear
7:11 PM 71.6 °F - 41.0 °F 33% 29.46 in 10.0 mi West 9.2 mph - N/A   Scattered Clouds
7:32 PM 68.0 °F - 42.8 °F 40% 29.45 in 10.0 mi WSW 9.2 mph - N/A   Scattered Clouds
7:51 PM 66.2 °F - 44.6 °F 46% 29.46 in 10.0 mi West 6.9 mph - N/A   Scattered Clouds
8:12 PM 66.2 °F - 42.8 °F 43% 29.46 in 10.0 mi WSW 11.5 mph - N/A   Scattered Clouds
8:32 PM 68.0 °F - 41.0 °F 37% 29.49 in 10.0 mi NW 17.3 mph 32.2 mph N/A   Clear
8:52 PM 64.4 °F - 42.8 °F 45% 29.51 in 10.0 mi NW 12.7 mph - N/A   Clear
9:11 PM 64.4 °F - 42.8 °F 45% 29.53 in 10.0 mi NW 18.4 mph 24.2 mph N/A   Clear
9:31 PM 60.8 °F - 44.6 °F 55% 29.56 in 10.0 mi NNW 23.0 mph 29.9 mph N/A   Clear
9:51 PM 57.2 °F - 42.8 °F 59% 29.58 in 10.0 mi NNW 31.1 mph 36.8 mph N/A   Scattered Clouds
10:12 PM 57.2 °F - 39.2 °F 51% 29.57 in 10.0 mi NNW 33.4 mph 43.7 mph N/A   Clear
10:32 PM 55.4 °F - 39.2 °F 54% 29.60 in 10.0 mi NNW 27.6 mph 42.6 mph N/A   Clear
10:51 PM 53.6 °F - 39.2 °F 58% 29.59 in 10.0 mi NNW 31.1 mph 43.7 mph N/A   Clear
11:12 PM 51.8 °F - 39.2 °F 62% 29.62 in 10.0 mi NNW 28.8 mph 39.1 mph N/A Rain Light Rain
11:32 PM 50.0 °F - 39.2 °F 66% 29.65 in 10.0 mi NNW 23.0 mph 32.2 mph N/A   Light Drizzle
11:51 PM 48.2 °F - 39.2 °F 71% 29.67 in 10.0 mi NNW 18.4 mph - N/A Rain Light Rain